createdAt,value
2018-06-28T00:01:34.515Z,15.57
2018-06-28T00:04:03.293Z,15.55
2018-06-28T00:06:32.261Z,15.53
2018-06-28T00:09:01.055Z,15.53
2018-06-28T00:11:29.860Z,15.52
2018-06-28T00:13:58.797Z,15.52
2018-06-28T00:16:27.651Z,15.48
2018-06-28T00:18:56.435Z,15.50
2018-06-28T00:21:25.430Z,15.49
2018-06-28T00:23:54.225Z,15.50
2018-06-28T00:26:23.001Z,15.51
2018-06-28T00:28:52.178Z,15.53
2018-06-28T00:31:20.982Z,15.52
2018-06-28T00:33:49.764Z,15.54
2018-06-28T00:36:18.612Z,15.54
2018-06-28T00:38:47.377Z,15.55
2018-06-28T00:41:16.160Z,15.56
2018-06-28T00:43:45.048Z,15.55
2018-06-28T00:46:13.797Z,15.54
2018-06-28T00:48:42.576Z,15.50
2018-06-28T00:51:11.393Z,15.53
2018-06-28T00:53:40.207Z,15.54
2018-06-28T00:56:08.988Z,15.55
2018-06-28T00:58:38.132Z,15.61
2018-06-28T01:01:06.990Z,15.55
2018-06-28T01:03:35.809Z,15.54
2018-06-28T01:06:04.694Z,15.48
2018-06-28T01:08:33.561Z,15.35
2018-06-28T01:11:02.354Z,15.27
2018-06-28T01:13:31.171Z,15.43
2018-06-28T01:15:59.945Z,15.49
2018-06-28T01:18:28.726Z,15.54
2018-06-28T01:20:57.741Z,15.55
2018-06-28T01:23:26.588Z,15.57
2018-06-28T01:25:55.365Z,15.57
2018-06-28T01:28:24.224Z,15.53
2018-06-28T01:30:53.149Z,15.53
2018-06-28T01:33:21.944Z,15.47
2018-06-28T01:35:50.730Z,15.47
2018-06-28T01:38:19.543Z,15.49
2018-06-28T01:40:48.607Z,15.47
2018-06-28T01:43:34.258Z,15.48
2018-06-28T01:46:03.047Z,15.48
2018-06-28T01:48:31.876Z,15.46
2018-06-28T01:51:00.872Z,15.46
2018-06-28T01:53:29.765Z,15.45
2018-06-28T01:55:58.682Z,15.41
2018-06-28T01:58:27.716Z,15.48
2018-06-28T02:00:56.531Z,15.50
2018-06-28T02:03:25.335Z,15.50
2018-06-28T02:05:54.789Z,15.51
2018-06-28T02:08:23.632Z,15.50
2018-06-28T02:10:52.502Z,15.49
2018-06-28T02:13:21.375Z,15.53
2018-06-28T02:15:50.211Z,15.52
2018-06-28T02:18:19.064Z,15.50
2018-06-28T02:20:47.913Z,15.52
2018-06-28T02:23:16.736Z,15.52
2018-06-28T02:25:45.560Z,15.51
2018-06-28T02:28:14.408Z,15.51
2018-06-28T02:30:43.217Z,15.47
2018-06-28T02:33:12.011Z,15.53
2018-06-28T02:35:41.027Z,15.51
2018-06-28T02:38:09.788Z,15.53
2018-06-28T02:40:38.568Z,15.53
2018-06-28T02:43:07.361Z,15.53
2018-06-28T02:45:36.105Z,15.51
2018-06-28T02:48:04.885Z,15.40
2018-06-28T02:50:33.732Z,15.40
2018-06-28T02:53:02.578Z,15.42
2018-06-28T02:55:31.397Z,15.34
2018-06-28T02:58:00.264Z,15.40
2018-06-28T03:00:29.066Z,15.48
2018-06-28T03:02:57.871Z,15.50
2018-06-28T03:05:26.861Z,15.44
2018-06-28T03:07:55.669Z,15.42
2018-06-28T03:10:24.456Z,15.42
2018-06-28T03:12:53.267Z,15.36
2018-06-28T03:15:22.054Z,15.16
2018-06-28T03:17:50.838Z,15.35
2018-06-28T03:20:19.664Z,15.40
2018-06-28T03:22:48.436Z,15.46
2018-06-28T03:25:17.231Z,15.46
2018-06-28T03:27:46.189Z,15.40
2018-06-28T03:30:14.992Z,15.40
2018-06-28T03:32:43.787Z,15.38
2018-06-28T03:35:12.774Z,15.37
2018-06-28T03:37:41.622Z,15.34
2018-06-28T03:40:10.505Z,15.31
2018-06-28T03:42:39.340Z,15.21
2018-06-28T03:45:08.162Z,15.34
2018-06-28T03:47:36.962Z,15.61
2018-06-28T03:50:05.989Z,15.56
2018-06-28T03:52:34.801Z,15.54
2018-06-28T03:55:03.742Z,15.50
2018-06-28T03:57:32.568Z,15.35
2018-06-28T04:00:01.339Z,15.17
2018-06-28T04:02:30.117Z,15.03
2018-06-28T04:04:58.939Z,15.03
2018-06-28T04:07:27.710Z,15.15
2018-06-28T04:09:56.534Z,15.16
2018-06-28T04:12:25.330Z,15.22
2018-06-28T04:14:54.088Z,15.36
2018-06-28T04:17:22.910Z,15.40
2018-06-28T04:19:51.702Z,15.42
2018-06-28T04:22:25.459Z,15.39
2018-06-28T04:24:54.289Z,15.40
2018-06-28T04:27:23.076Z,15.41
2018-06-28T04:29:51.928Z,15.30
2018-06-28T04:32:20.789Z,15.36
2018-06-28T04:34:49.577Z,15.41
2018-06-28T04:37:18.496Z,15.46
2018-06-28T04:39:47.294Z,15.49
2018-06-28T04:42:16.204Z,15.52
2018-06-28T04:44:44.958Z,15.51
2018-06-28T04:47:13.791Z,15.51
2018-06-28T04:49:42.603Z,15.58
2018-06-28T04:52:11.388Z,15.66
2018-06-28T04:54:40.337Z,15.71
2018-06-28T04:57:09.137Z,15.80
2018-06-28T04:59:37.900Z,15.85
2018-06-28T05:02:06.947Z,15.88
2018-06-28T05:04:35.725Z,15.89
2018-06-28T05:07:04.553Z,15.92
2018-06-28T05:09:33.492Z,16.00
2018-06-28T05:12:02.371Z,16.04
2018-06-28T05:14:31.148Z,16.05
2018-06-28T05:17:00.333Z,15.99
2018-06-28T05:19:29.117Z,16.03
2018-06-28T05:21:57.932Z,16.00
2018-06-28T05:24:26.907Z,16.09
2018-06-28T05:26:55.692Z,15.97
2018-06-28T05:29:24.473Z,16.06
2018-06-28T05:31:53.700Z,16.11
2018-06-28T05:34:22.482Z,16.12
2018-06-28T05:36:51.278Z,16.06
2018-06-28T05:39:20.071Z,16.05
2018-06-28T05:41:48.844Z,16.12
2018-06-28T05:44:17.599Z,16.21
2018-06-28T05:46:46.477Z,16.35
2018-06-28T05:49:15.280Z,16.40
2018-06-28T05:51:44.102Z,16.25
2018-06-28T05:54:13.185Z,16.32
2018-06-28T05:56:41.913Z,16.42
2018-06-28T05:59:10.740Z,16.53
2018-06-28T06:01:39.608Z,16.57
2018-06-28T06:04:08.384Z,16.62
2018-06-28T06:06:37.182Z,16.57
2018-06-28T06:09:08.374Z,16.56
2018-06-28T06:11:37.268Z,16.52
2018-06-28T06:14:06.112Z,16.42
2018-06-28T06:16:35.411Z,16.55
2018-06-28T06:19:04.536Z,16.54
2018-06-28T06:21:33.315Z,16.58
2018-06-28T06:24:02.262Z,16.72
2018-06-28T06:26:31.049Z,16.76
2018-06-28T06:28:59.789Z,16.67
2018-06-28T06:31:28.735Z,16.76
2018-06-28T06:33:57.659Z,16.89
2018-06-28T06:36:26.605Z,17.20
2018-06-28T06:38:55.384Z,17.39
2018-06-28T06:41:24.430Z,17.46
2018-06-28T06:43:53.350Z,17.59
2018-06-28T06:46:22.176Z,17.70
2018-06-28T06:48:51.079Z,17.67
2018-06-28T06:51:19.822Z,17.58
2018-06-28T06:53:48.630Z,17.43
2018-06-28T06:56:17.434Z,17.38
2018-06-28T06:58:46.241Z,17.40
2018-06-28T07:01:16.284Z,17.37
2018-06-28T07:03:45.134Z,17.39
2018-06-28T07:06:13.969Z,17.43
2018-06-28T07:08:42.894Z,17.43
2018-06-28T07:11:11.746Z,17.39
2018-06-28T07:13:40.573Z,17.28
2018-06-28T07:16:09.545Z,17.27
2018-06-28T07:18:38.424Z,17.31
2018-06-28T07:21:07.476Z,17.12
2018-06-28T07:23:36.450Z,17.16
2018-06-28T07:26:05.453Z,17.15
2018-06-28T07:28:34.351Z,17.09
2018-06-28T07:31:03.167Z,17.22
2018-06-28T07:33:31.987Z,17.27
2018-06-28T07:36:00.836Z,17.22
2018-06-28T07:38:29.720Z,17.15
2018-06-28T07:43:50.972Z,17.16
2018-06-28T07:46:19.761Z,17.15
2018-06-28T07:48:48.547Z,17.20
2018-06-28T07:51:17.408Z,17.91
2018-06-28T07:53:46.173Z,18.19
2018-06-28T07:56:14.992Z,18.43
2018-06-28T07:58:44.126Z,18.61
2018-06-28T08:01:12.956Z,18.76
2018-06-28T08:03:41.757Z,18.81
2018-06-28T08:06:10.628Z,18.90
2018-06-28T08:08:39.436Z,18.92
2018-06-28T08:11:08.268Z,18.93
2018-06-28T08:13:37.423Z,18.90
2018-06-28T08:16:06.232Z,18.86
2018-06-28T08:18:35.050Z,18.63
2018-06-28T08:21:04.234Z,18.29
2018-06-28T08:23:33.051Z,18.15
2018-06-28T08:26:01.848Z,17.97
2018-06-28T08:28:30.829Z,17.83
2018-06-28T08:30:59.647Z,17.70
2018-06-28T08:33:28.490Z,17.62
2018-06-28T08:35:57.494Z,17.56
2018-06-28T08:38:26.406Z,17.51
2018-06-28T08:40:55.257Z,17.57
2018-06-28T08:43:24.491Z,17.39
2018-06-28T08:45:53.292Z,17.49
2018-06-28T08:48:22.064Z,17.67
2018-06-28T08:50:50.899Z,17.83
2018-06-28T08:53:19.693Z,17.91
2018-06-28T08:55:48.519Z,18.00
2018-06-28T08:58:17.661Z,18.16
2018-06-28T09:00:46.536Z,18.25
2018-06-28T09:03:15.323Z,18.29
2018-06-28T09:05:44.478Z,18.29
2018-06-28T09:08:13.292Z,18.25
2018-06-28T09:10:42.057Z,18.39
2018-06-28T09:13:10.900Z,18.45
2018-06-28T09:15:39.708Z,18.54
2018-06-28T09:18:08.475Z,18.62
2018-06-28T09:20:37.288Z,18.69
2018-06-28T09:23:06.315Z,18.72
2018-06-28T09:25:35.090Z,18.72
2018-06-28T09:28:03.917Z,18.66
2018-06-28T09:30:32.730Z,18.56
2018-06-28T09:33:01.588Z,18.27
2018-06-28T09:35:30.631Z,18.07
2018-06-28T09:37:59.448Z,18.00
2018-06-28T09:40:28.257Z,17.87
2018-06-28T09:42:57.134Z,17.80
2018-06-28T09:45:25.945Z,17.80
2018-06-28T09:47:54.794Z,17.66
2018-06-28T09:50:23.631Z,17.48
2018-06-28T09:52:52.584Z,17.21
2018-06-28T09:55:21.969Z,17.23
2018-06-28T09:57:50.985Z,17.27
2018-06-28T10:00:24.975Z,17.42
2018-06-28T10:02:53.789Z,17.64
2018-06-28T10:05:22.583Z,17.74
2018-06-28T10:07:51.400Z,17.77
2018-06-28T10:10:20.599Z,17.68
2018-06-28T10:12:49.571Z,17.63
2018-06-28T10:15:18.425Z,17.45
2018-06-28T10:17:47.276Z,17.30
2018-06-28T10:20:16.073Z,17.23
2018-06-28T10:22:44.877Z,17.17
2018-06-28T10:25:13.824Z,17.10
2018-06-28T10:27:42.613Z,17.13
2018-06-28T10:30:11.437Z,17.22
2018-06-28T10:32:40.524Z,17.18
2018-06-28T10:35:09.393Z,17.18
2018-06-28T10:37:38.254Z,17.19
2018-06-28T10:40:07.236Z,17.11
2018-06-28T10:42:36.088Z,17.07
2018-06-28T10:45:05.046Z,17.08
2018-06-28T10:47:33.924Z,17.06
2018-06-28T10:50:02.720Z,17.15
2018-06-28T10:52:31.500Z,17.28
2018-06-28T10:55:00.340Z,17.37
2018-06-28T10:57:29.197Z,17.24
2018-06-28T10:59:58.057Z,17.26
2018-06-28T11:02:27.230Z,17.12
2018-06-28T11:04:56.054Z,17.18
2018-06-28T11:07:24.969Z,17.29
2018-06-28T11:09:53.873Z,17.30
2018-06-28T11:12:22.675Z,17.34
2018-06-28T11:14:51.477Z,17.38
2018-06-28T11:17:20.313Z,17.51
2018-06-28T11:19:49.084Z,17.52
2018-06-28T11:22:17.886Z,17.38
2018-06-28T11:24:46.760Z,17.38
2018-06-28T11:27:15.544Z,17.29
2018-06-28T11:29:44.366Z,17.27
2018-06-28T11:32:13.230Z,17.18
2018-06-28T11:34:42.069Z,17.18
2018-06-28T11:37:10.909Z,17.23
2018-06-28T11:39:39.731Z,17.29
2018-06-28T11:42:08.556Z,17.34
2018-06-28T11:44:38.969Z,17.45
2018-06-28T11:47:07.799Z,17.54
2018-06-28T11:49:36.644Z,17.71
2018-06-28T11:52:05.565Z,17.74
2018-06-28T11:54:34.598Z,17.71
2018-06-28T11:57:03.393Z,17.74
2018-06-28T11:59:32.268Z,17.78
2018-06-28T12:02:01.061Z,17.78
2018-06-28T12:04:29.850Z,17.74
2018-06-28T12:06:58.684Z,17.47
2018-06-28T12:09:27.535Z,17.32
2018-06-28T12:11:56.350Z,17.41
2018-06-28T12:14:25.132Z,17.37
2018-06-28T12:16:53.952Z,17.41
2018-06-28T12:19:22.750Z,17.52
2018-06-28T12:21:51.540Z,17.50
2018-06-28T12:24:20.716Z,17.44
2018-06-28T12:26:49.579Z,17.47
2018-06-28T12:29:18.424Z,17.53
2018-06-28T12:31:47.393Z,17.71
2018-06-28T12:34:16.255Z,17.80
2018-06-28T12:36:45.031Z,17.86
2018-06-28T12:39:13.875Z,18.00
2018-06-28T12:41:42.748Z,18.22
2018-06-28T12:44:11.602Z,18.28
2018-06-28T12:47:58.792Z,18.37
2018-06-28T12:50:27.672Z,18.55
2018-06-28T12:52:58.381Z,18.67
2018-06-28T12:55:28.337Z,18.74
2018-06-28T12:57:58.308Z,18.74
2018-06-28T13:00:27.125Z,18.58
2018-06-28T13:02:56.170Z,18.46
2018-06-28T13:05:24.958Z,18.39
2018-06-28T13:07:53.757Z,18.50
2018-06-28T13:10:22.807Z,18.62
2018-06-28T13:12:51.595Z,18.70
2018-06-28T13:15:20.405Z,18.72
2018-06-28T13:17:49.251Z,18.61
2018-06-28T13:20:18.088Z,18.38
2018-06-28T13:22:46.886Z,18.60
2018-06-28T13:25:16.045Z,18.85
2018-06-28T13:27:44.831Z,19.05
2018-06-28T13:30:13.616Z,19.19
2018-06-28T13:32:42.577Z,19.35
2018-06-28T13:35:11.433Z,19.47
2018-06-28T13:37:40.232Z,19.61
2018-06-28T13:40:09.103Z,19.79
2018-06-28T13:42:37.955Z,19.88
2018-06-28T13:45:06.871Z,19.89
2018-06-28T13:47:35.816Z,19.91
2018-06-28T13:50:04.851Z,19.93
2018-06-28T13:52:33.679Z,19.86
2018-06-28T13:55:02.546Z,19.87
2018-06-28T13:57:31.401Z,19.77
2018-06-28T14:00:00.227Z,19.64
2018-06-28T14:02:29.366Z,19.55
2018-06-28T14:04:59.142Z,19.50
2018-06-28T14:07:27.973Z,19.57
2018-06-28T14:09:56.841Z,19.60
2018-06-28T14:12:25.654Z,19.59
2018-06-28T14:14:54.503Z,19.70
2018-06-28T14:17:23.557Z,19.73
2018-06-28T14:19:52.389Z,19.74
2018-06-28T14:22:21.274Z,19.81
2018-06-28T14:24:50.075Z,19.87
2018-06-28T14:27:18.883Z,19.92
2018-06-28T14:29:47.671Z,19.97
2018-06-28T14:32:16.635Z,19.97
2018-06-28T14:34:45.641Z,19.92
2018-06-28T14:37:14.656Z,19.89
2018-06-28T14:39:43.477Z,19.84
2018-06-28T14:42:12.345Z,19.64
2018-06-28T14:44:41.154Z,19.60
2018-06-28T14:47:10.041Z,19.55
2018-06-28T14:49:38.788Z,19.40
2018-06-28T14:52:07.639Z,19.30
2018-06-28T14:54:36.593Z,19.26
2018-06-28T14:57:05.493Z,19.25
2018-06-28T14:59:34.460Z,19.29
2018-06-28T15:02:03.298Z,19.27
2018-06-28T15:04:32.171Z,19.28
2018-06-28T15:07:01.027Z,19.37
2018-06-28T15:09:30.055Z,19.38
2018-06-28T15:11:58.847Z,19.39
2018-06-28T15:14:27.662Z,19.40
2018-06-28T15:16:56.607Z,19.37
2018-06-28T15:19:25.389Z,19.32
2018-06-28T15:21:54.229Z,19.22
2018-06-28T15:24:23.051Z,19.16
2018-06-28T15:26:51.959Z,19.08
2018-06-28T15:29:20.750Z,18.97
2018-06-28T15:31:49.585Z,18.86
2018-06-28T15:34:18.393Z,18.76
2018-06-28T15:36:47.295Z,18.66
2018-06-28T15:39:16.092Z,18.64
2018-06-28T15:41:44.924Z,18.60
2018-06-28T15:44:13.749Z,18.50
2018-06-28T15:46:42.620Z,18.43
2018-06-28T15:49:11.394Z,18.41
2018-06-28T15:51:40.234Z,18.37
2018-06-28T15:54:09.155Z,18.30
2018-06-28T15:56:37.994Z,18.32
2018-06-28T15:59:06.869Z,18.32
2018-06-28T16:01:35.957Z,18.29
2018-06-28T16:04:04.933Z,18.26
2018-06-28T16:06:33.934Z,18.25
2018-06-28T16:09:02.814Z,18.20
2018-06-28T16:11:31.606Z,18.23
2018-06-28T16:14:00.414Z,18.25
2018-06-28T16:16:29.372Z,18.25
2018-06-28T16:18:58.197Z,18.18
2018-06-28T16:21:27.031Z,18.11
2018-06-28T16:23:55.955Z,18.11
2018-06-28T16:26:24.790Z,18.19
2018-06-28T16:28:53.707Z,18.12
2018-06-28T16:31:22.584Z,18.17
2018-06-28T16:33:51.499Z,18.19
2018-06-28T16:36:20.414Z,18.26
2018-06-28T16:38:49.486Z,18.21
2018-06-28T16:41:18.383Z,18.26
2018-06-28T16:43:47.204Z,18.35
2018-06-28T16:46:16.074Z,18.46
2018-06-28T16:48:44.947Z,18.54
2018-06-28T16:51:13.824Z,18.53
2018-06-28T16:53:42.795Z,18.44
2018-06-28T16:56:11.668Z,18.31
2018-06-28T16:58:40.542Z,18.32
2018-06-28T17:01:09.595Z,18.19
2018-06-28T17:03:38.565Z,18.14
2018-06-28T17:06:07.527Z,17.99
2018-06-28T17:08:36.930Z,17.93
2018-06-28T17:11:05.893Z,17.90
2018-06-28T17:13:35.031Z,17.84
2018-06-28T17:16:04.062Z,17.83
2018-06-28T17:18:32.924Z,18.00
2018-06-28T17:21:01.846Z,18.08
2018-06-28T17:23:30.994Z,18.01
2018-06-28T17:25:59.913Z,17.84
2018-06-28T17:28:28.796Z,17.74
2018-06-28T17:30:57.821Z,17.73
2018-06-28T17:33:26.640Z,17.77
2018-06-28T17:35:55.532Z,17.90
2018-06-28T17:38:24.467Z,18.04
2018-06-28T17:40:53.410Z,18.07
2018-06-28T17:43:22.255Z,18.10
2018-06-28T17:45:51.142Z,18.11
2018-06-28T17:48:19.991Z,18.04
2018-06-28T17:50:48.858Z,18.10
2018-06-28T17:53:17.732Z,18.09
2018-06-28T17:55:46.568Z,18.10
2018-06-28T17:58:15.417Z,18.18
2018-06-28T18:00:44.343Z,18.16
2018-06-28T18:03:13.166Z,18.21
2018-06-28T18:05:41.985Z,18.18
2018-06-28T18:08:10.990Z,18.23
2018-06-28T18:10:39.867Z,18.21
2018-06-28T18:13:08.660Z,18.24
2018-06-28T18:15:37.592Z,18.10
2018-06-28T18:18:06.498Z,18.06
2018-06-28T18:20:35.509Z,18.03
2018-06-28T18:23:04.404Z,17.95
2018-06-28T18:25:33.222Z,18.03
2018-06-28T18:28:02.107Z,18.08
2018-06-28T18:30:30.958Z,18.09
2018-06-28T18:33:00.560Z,18.10
2018-06-28T18:35:29.384Z,17.96
2018-06-28T18:37:58.310Z,17.75
2018-06-28T18:40:27.063Z,17.54
2018-06-28T18:42:55.865Z,17.38
2018-06-28T18:45:24.687Z,17.29
2018-06-28T18:47:53.512Z,17.20
2018-06-28T18:50:22.352Z,17.09
2018-06-28T18:52:51.223Z,17.12
2018-06-28T18:55:20.059Z,17.03
2018-06-28T18:57:48.876Z,17.07
2018-06-28T19:00:17.773Z,16.99
2018-06-28T19:02:46.603Z,16.99
2018-06-28T19:05:15.483Z,16.84
2018-06-28T19:07:44.461Z,16.88
2018-06-28T19:10:18.293Z,16.83
2018-06-28T19:12:47.206Z,16.72
2018-06-28T19:15:21.252Z,16.70
2018-06-28T19:17:50.264Z,16.72
2018-06-28T19:20:20.043Z,16.76
2018-06-28T19:22:53.837Z,16.75
2018-06-28T19:25:22.727Z,16.61
2018-06-28T19:27:51.606Z,16.62
2018-06-28T19:30:25.692Z,16.68
2018-06-28T19:32:54.469Z,16.64
2018-06-28T19:35:23.266Z,16.68
2018-06-28T19:37:52.267Z,16.72
2018-06-28T19:40:26.163Z,16.53
2018-06-28T19:43:00.696Z,16.56
2018-06-28T19:45:29.533Z,16.60
2018-06-28T19:47:59.170Z,16.64
2018-06-28T19:50:33.089Z,16.52
2018-06-28T19:53:04.109Z,16.42
2018-06-28T19:55:32.960Z,16.46
2018-06-28T19:58:01.976Z,16.51
2018-06-28T20:00:36.532Z,16.50
2018-06-28T20:03:10.598Z,16.55
2018-06-28T20:05:40.055Z,16.70
2018-06-28T20:08:08.894Z,16.83
2018-06-28T20:10:37.952Z,16.76
2018-06-28T20:15:12.895Z,16.76
2018-06-28T20:17:57.838Z,16.67
2018-06-28T20:20:27.434Z,16.69
2018-06-28T20:22:56.787Z,16.74
2018-06-28T20:25:25.762Z,16.74
2018-06-28T20:27:59.646Z,16.72
2018-06-28T20:30:33.664Z,16.73
2018-06-28T20:33:07.687Z,16.63
2018-06-28T20:35:36.674Z,16.61
2018-06-28T20:38:05.556Z,16.61
2018-06-28T20:40:34.380Z,16.62
2018-06-28T20:43:03.348Z,16.49
2018-06-28T20:45:32.168Z,16.46
2018-06-28T20:48:00.975Z,16.46
2018-06-28T20:50:29.959Z,16.45
2018-06-28T20:52:58.795Z,16.53
2018-06-28T20:55:27.615Z,16.57
2018-06-28T20:57:56.492Z,16.56
2018-06-28T21:00:25.299Z,16.59
2018-06-28T21:02:54.120Z,16.63
2018-06-28T21:05:23.272Z,16.59
2018-06-28T21:07:52.066Z,16.65
2018-06-28T21:10:20.896Z,16.67
2018-06-28T21:12:50.050Z,16.50
2018-06-28T21:15:18.884Z,16.64
2018-06-28T21:17:47.706Z,16.63
2018-06-28T21:20:16.704Z,16.64
2018-06-28T21:22:45.520Z,16.64
2018-06-28T21:25:14.410Z,16.67
2018-06-28T21:27:43.234Z,16.62
2018-06-28T21:30:12.083Z,16.62
2018-06-28T21:32:40.900Z,16.56
2018-06-28T21:35:09.780Z,16.60
2018-06-28T21:37:38.789Z,16.61
2018-06-28T21:40:07.649Z,16.68
2018-06-28T21:42:36.813Z,16.64
2018-06-28T21:45:05.718Z,16.60
2018-06-28T21:47:34.501Z,16.48
2018-06-28T21:50:03.384Z,16.55
2018-06-28T21:52:32.169Z,16.53
2018-06-28T21:55:00.974Z,16.40
2018-06-28T21:57:29.902Z,16.45
2018-06-28T21:59:58.786Z,16.46
2018-06-28T22:02:27.559Z,16.39
2018-06-28T22:04:56.515Z,16.42
2018-06-28T22:07:25.308Z,16.37
2018-06-28T22:09:54.175Z,16.35
2018-06-28T22:12:24.241Z,16.36
2018-06-28T22:14:53.090Z,16.37
2018-06-28T22:17:21.912Z,16.35
2018-06-28T22:19:50.860Z,16.41
2018-06-28T22:22:19.671Z,16.37
2018-06-28T22:24:48.495Z,16.41
2018-06-28T22:27:17.311Z,16.41
2018-06-28T22:29:46.082Z,16.42
2018-06-28T22:32:14.902Z,16.30
2018-06-28T22:34:44.121Z,16.34
2018-06-28T22:37:12.913Z,16.37
2018-06-28T22:39:41.703Z,16.34
2018-06-28T22:42:10.645Z,16.35
2018-06-28T22:44:39.474Z,16.27
2018-06-28T22:47:08.254Z,16.35
2018-06-28T22:49:37.182Z,16.43
2018-06-28T22:52:05.986Z,16.40
2018-06-28T22:54:34.775Z,16.44
2018-06-28T22:57:03.760Z,16.49
2018-06-28T22:59:32.555Z,16.44
2018-06-28T23:02:01.366Z,16.49
2018-06-28T23:04:30.635Z,16.52
2018-06-28T23:06:59.460Z,16.55
2018-06-28T23:09:28.240Z,16.53
2018-06-28T23:11:57.081Z,16.44
2018-06-28T23:14:25.855Z,16.43
2018-06-28T23:16:54.637Z,16.35
2018-06-28T23:19:23.718Z,16.33
2018-06-28T23:21:52.503Z,16.33
2018-06-28T23:24:21.332Z,16.34
2018-06-28T23:26:50.456Z,16.35
2018-06-28T23:29:19.237Z,16.30
2018-06-28T23:31:48.021Z,16.24
2018-06-28T23:34:16.808Z,16.16
2018-06-28T23:36:45.631Z,16.17
2018-06-28T23:39:14.443Z,16.08
2018-06-28T23:41:43.296Z,16.04
2018-06-28T23:44:12.074Z,15.92
2018-06-28T23:46:40.938Z,15.96
2018-06-28T23:49:09.854Z,16.04
2018-06-28T23:51:38.906Z,16.08
2018-06-28T23:54:07.574Z,16.21
2018-06-28T23:56:36.527Z,16.21
2018-06-28T23:59:05.340Z,16.22
